Vinh Long, Viet Nam

1:03 PM ICT on September 20, 2014 (GMT +0700)
Tra Noc | Change Station
CLOSE
Current Station
Airport
Location: Can Tho Airfield,
Elevation: 7 ft
Nearby Weather Stations

Elev 7 ft 10.09 °N, 105.71 °E | Updated 33 minutes ago

Scattered Clouds
Scattered Clouds
91 °F
Feels Like 100 °F
N
8
Wind Variable Wind from West

Today
High -- | Low -- °F
--% Chance of Precip.
Yesterday
High -- | Low -- °F
Precip. -- in
5:45 AM 5:53 PM
Waning Crescent, 14% visible
Pressure 29.77 in
Visibility 6.2 miles
Clouds Scattered Clouds 1500 ft
Heat Index 100 °F
Dew Point 73 °F
Humidity 55%
Rainfall 0.00 in
Snow Depth Not available.
UV 13 out of 12
Pollen Not available.
Air Quality Not available.
Flu Activity Not available.
METAR VVCT 200530Z 28007KT 9999 SCT015 33/23 Q1008 NOSIG

More Conditions Fewer Conditions

Pressure 29.77 in
Visibility 6.2 miles
Clouds Scattered Clouds 1500 ft
Heat Index 100 °F
Dew Point 73 °F
Humidity 55%
Rainfall 0.00 in
Snow Depth Not available.
UV 13 out of 12
Pollen Not available.
Air Quality Not available.
Flu Activity Not available.
METAR VVCT 200530Z 28007KT 9999 SCT015 33/23 Q1008 NOSIG

More Conditions Fewer Conditions

10-Day Weather Forecast

Almanac

Astronomy

Sep. 20, 2014 Rise Set
Actual Time 5:45 AM ICT 5:53 PM ICT
Civil Twilight 5:24 AM ICT 6:14 PM ICT
Nautical Twilight 5:00 AM ICT 6:39 PM ICT
Astronomical Twilight 4:35 AM ICT 7:03 PM ICT
Moon 2:28 AM ICT 3:09 PM ICT
Length of Visible Light 12h 50m
Length of Day
12h 08m
Tomorrow will be 0m 34s shorter.
Waning Crescent, 14% of the Moon is Illuminated
Today
Waning Crescent
Sep 24
New
Oct 1
First Quarter
Oct 8
Full
Oct 15
Last Quarter

Yesterday's Extremes

Country Highs Country Lows

Community

WunderPhotos

Upload Photos

1,754,777 photos uploaded!

WunderBlogs® & News

Nearby

Snow Depth

Not available.

Earthquake Activity

City Distance Mag. Time & Date
No recent earthquake activity has been reported nearby.
Minimum magnitude displayed is 2.5.

Coastal Water Temperatures

Place Temperature
No Stations Reporting

Nearby Weather Stations